createdAt,value
2023-04-08T00:00:44.177Z,0.51
2023-04-08T00:01:44.232Z,0.53
2023-04-08T00:02:44.390Z,0.51
2023-04-08T00:03:44.400Z,0.50
2023-04-08T00:04:44.368Z,0.51
2023-04-08T00:05:44.368Z,0.50
2023-04-08T00:06:44.389Z,0.52
2023-04-08T00:07:44.457Z,0.52
2023-04-08T00:08:44.492Z,0.54
2023-04-08T00:09:44.523Z,0.53
2023-04-08T00:10:44.542Z,0.53
2023-04-08T00:11:44.573Z,0.52
2023-04-08T00:12:44.605Z,0.52
2023-04-08T00:13:44.653Z,0.52
2023-04-08T00:14:44.692Z,0.52
2023-04-08T00:15:44.718Z,0.52
2023-04-08T00:16:44.765Z,0.53
2023-04-08T00:17:44.839Z,0.51
2023-04-08T00:18:44.856Z,0.51
2023-04-08T00:19:44.881Z,0.52
2023-04-08T00:20:44.938Z,0.51
2023-04-08T00:21:44.942Z,0.52
2023-04-08T00:22:45.019Z,0.52
2023-04-08T00:23:45.052Z,0.52
2023-04-08T00:24:45.094Z,0.54
2023-04-08T00:25:45.128Z,0.54
2023-04-08T00:26:45.171Z,0.53
2023-04-08T00:27:45.205Z,0.52
2023-04-08T00:28:45.256Z,0.54
2023-04-08T00:29:45.286Z,0.53
2023-04-08T00:30:45.361Z,0.54
2023-04-08T00:31:45.403Z,0.55
2023-04-08T00:32:45.476Z,0.55
2023-04-08T00:33:45.484Z,0.54
2023-04-08T00:34:45.493Z,0.54
2023-04-08T00:35:45.561Z,0.53
2023-04-08T00:36:45.579Z,0.54
2023-04-08T00:37:45.611Z,0.55
2023-04-08T00:38:45.680Z,0.55
2023-04-08T00:39:45.745Z,0.55
2023-04-08T00:40:45.747Z,0.55
2023-04-08T00:41:45.786Z,0.55
2023-04-08T00:42:45.852Z,0.54
2023-04-08T00:43:45.881Z,0.56
2023-04-08T00:44:45.908Z,0.56
2023-04-08T00:45:46.094Z,0.55
2023-04-08T00:46:46.017Z,0.55
2023-04-08T00:47:46.129Z,0.57
2023-04-08T00:48:46.091Z,0.55
2023-04-08T00:49:46.125Z,0.57
2023-04-08T00:50:46.158Z,0.57
2023-04-08T00:51:46.219Z,0.57
2023-04-08T00:52:46.227Z,0.55
2023-04-08T00:53:46.270Z,0.56
2023-04-08T00:54:46.343Z,0.56
2023-04-08T00:55:46.361Z,0.57
2023-04-08T00:56:46.400Z,0.56
2023-04-08T00:57:46.452Z,0.56
2023-04-08T00:58:46.476Z,0.57
2023-04-08T00:59:46.540Z,0.59
2023-04-08T01:00:46.583Z,0.58
2023-04-08T01:01:46.605Z,0.55
2023-04-08T01:02:46.743Z,0.58
2023-04-08T01:03:46.759Z,0.58
2023-04-08T01:04:46.733Z,0.57
2023-04-08T01:05:46.756Z,0.56
2023-04-08T01:06:46.818Z,0.58
2023-04-08T01:07:46.860Z,0.59
2023-04-08T01:08:46.865Z,0.58
2023-04-08T01:09:46.931Z,0.58
2023-04-08T01:10:46.941Z,0.58
2023-04-08T01:11:46.971Z,0.58
2023-04-08T01:12:47.038Z,0.57
2023-04-08T01:13:47.055Z,0.56
2023-04-08T01:14:47.085Z,0.57
2023-04-08T01:15:47.139Z,0.58
2023-04-08T01:16:47.141Z,0.59
2023-04-08T01:17:47.246Z,0.61
2023-04-08T01:18:47.195Z,0.60
2023-04-08T01:19:47.221Z,0.59
2023-04-08T01:20:47.305Z,0.61
2023-04-08T01:21:47.314Z,0.61
2023-04-08T01:22:47.360Z,0.63
2023-04-08T01:23:47.468Z,0.61
2023-04-08T01:24:47.409Z,0.62
2023-04-08T01:25:47.448Z,0.62
2023-04-08T01:26:47.489Z,0.61
2023-04-08T01:27:47.567Z,0.61
2023-04-08T01:28:47.682Z,0.61
2023-04-08T01:29:47.621Z,0.62
2023-04-08T01:30:47.668Z,0.62
2023-04-08T01:31:47.696Z,0.62
2023-04-08T01:32:47.768Z,0.60
2023-04-08T01:33:47.748Z,0.62
2023-04-08T01:34:47.808Z,0.60
2023-04-08T01:35:47.897Z,0.62
2023-04-08T01:36:47.915Z,0.60
2023-04-08T01:37:47.955Z,0.60
2023-04-08T01:38:48.230Z,0.61
2023-04-08T01:39:48.049Z,0.62
2023-04-08T01:40:48.061Z,0.61
2023-04-08T01:41:48.131Z,0.61
2023-04-08T01:42:48.156Z,0.61
2023-04-08T01:43:48.202Z,0.64
2023-04-08T01:44:48.245Z,0.63
2023-04-08T01:45:48.307Z,0.62
2023-04-08T01:46:48.369Z,0.63
2023-04-08T01:47:48.409Z,0.62
2023-04-08T01:48:48.496Z,0.63
2023-04-08T01:49:48.422Z,0.63
2023-04-08T01:50:48.491Z,0.64
2023-04-08T01:51:48.546Z,0.65
2023-04-08T01:52:48.585Z,0.63
2023-04-08T01:53:48.612Z,0.64
2023-04-08T01:54:48.673Z,0.64
2023-04-08T01:55:48.704Z,0.63
2023-04-08T01:56:48.731Z,0.63
2023-04-08T01:57:48.796Z,0.65
2023-04-08T01:58:49.065Z,0.62
2023-04-08T01:59:48.873Z,0.63
2023-04-08T02:00:48.886Z,0.63
2023-04-08T02:01:49.071Z,0.61
2023-04-08T02:02:49.172Z,0.62
2023-04-08T02:03:49.059Z,0.61
2023-04-08T02:04:49.079Z,0.63
2023-04-08T02:05:49.115Z,0.62
2023-04-08T02:06:49.163Z,0.63
2023-04-08T02:07:49.191Z,0.63
2023-04-08T02:08:49.412Z,0.64
2023-04-08T02:09:49.257Z,0.63
2023-04-08T02:10:49.325Z,0.62
2023-04-08T02:11:49.339Z,0.63
2023-04-08T02:12:49.406Z,0.61
2023-04-08T02:13:49.463Z,0.63
2023-04-08T02:14:49.467Z,0.62
2023-04-08T02:15:49.549Z,0.63
2023-04-08T02:16:49.560Z,0.63
2023-04-08T02:17:49.707Z,0.63
2023-04-08T02:18:49.898Z,0.64
2023-04-08T02:19:49.688Z,0.62
2023-04-08T02:20:49.714Z,0.61
2023-04-08T02:21:49.746Z,0.62
2023-04-08T02:22:49.812Z,0.62
2023-04-08T02:23:49.828Z,0.64
2023-04-08T02:24:49.904Z,0.62
2023-04-08T02:25:49.919Z,0.62
2023-04-08T02:26:49.953Z,0.62
2023-04-08T02:27:49.988Z,0.62
2023-04-08T02:28:50.270Z,0.62
2023-04-08T02:29:50.098Z,0.60
2023-04-08T02:30:50.097Z,0.62
2023-04-08T02:31:50.203Z,0.62
2023-04-08T02:32:50.242Z,0.61
2023-04-08T02:33:50.250Z,0.62
2023-04-08T02:34:50.287Z,0.63
2023-04-08T02:35:50.329Z,0.62
2023-04-08T02:36:50.358Z,0.61
2023-04-08T02:37:50.410Z,0.61
2023-04-08T02:38:50.599Z,0.62
2023-04-08T02:39:50.448Z,0.61
2023-04-08T02:40:50.537Z,0.62
2023-04-08T02:41:50.568Z,0.61
2023-04-08T02:42:50.586Z,0.62
2023-04-08T02:43:50.648Z,0.65
2023-04-08T02:44:50.665Z,0.65
2023-04-08T02:45:50.713Z,0.62
2023-04-08T02:46:50.772Z,0.61
2023-04-08T02:47:50.858Z,0.63
2023-04-08T02:48:51.039Z,0.63
2023-04-08T02:49:50.871Z,0.63
2023-04-08T02:50:50.936Z,0.63
2023-04-08T02:51:50.953Z,0.64
2023-04-08T02:52:50.994Z,0.62
2023-04-08T02:53:51.101Z,0.61
2023-04-08T02:54:51.086Z,0.60
2023-04-08T02:55:51.173Z,0.60
2023-04-08T02:56:51.160Z,0.61
2023-04-08T02:57:51.216Z,0.60
2023-04-08T02:58:51.440Z,0.61
2023-04-08T02:59:51.291Z,0.59
2023-04-08T03:00:51.367Z,0.59
2023-04-08T03:01:51.416Z,0.58
2023-04-08T03:02:51.598Z,0.61
2023-04-08T03:03:51.506Z,0.59
2023-04-08T03:04:51.498Z,0.61
2023-04-08T03:05:51.515Z,0.63
2023-04-08T03:06:51.542Z,0.62
2023-04-08T03:07:51.578Z,0.62
2023-04-08T03:08:51.905Z,0.63
2023-04-08T03:09:51.665Z,0.62
2023-04-08T03:10:51.709Z,0.62
2023-04-08T03:11:51.751Z,0.62
2023-04-08T03:12:51.787Z,0.65
2023-04-08T03:13:51.800Z,0.62
2023-04-08T03:14:51.824Z,0.60
2023-04-08T03:15:51.880Z,0.60
2023-04-08T03:16:51.963Z,0.62
2023-04-08T03:17:52.037Z,0.61
2023-04-08T03:18:52.189Z,0.63
2023-04-08T03:19:52.046Z,0.63
2023-04-08T03:20:52.071Z,0.65
2023-04-08T03:21:52.103Z,0.65
2023-04-08T03:22:52.118Z,0.63
2023-04-08T03:23:52.157Z,0.62
2023-04-08T03:24:52.201Z,0.59
2023-04-08T03:25:52.249Z,0.64
2023-04-08T03:26:52.277Z,0.63
2023-04-08T03:27:52.316Z,0.64
2023-04-08T03:28:52.427Z,0.63
2023-04-08T03:29:52.398Z,0.65
2023-04-08T03:30:52.444Z,0.64
2023-04-08T03:31:52.482Z,0.65
2023-04-08T03:32:52.559Z,0.65
2023-04-08T03:33:52.532Z,0.62
2023-04-08T03:34:52.635Z,0.63
2023-04-08T03:35:52.672Z,0.61
2023-04-08T03:36:52.656Z,0.63
2023-04-08T03:37:52.699Z,0.64
2023-04-08T03:38:52.752Z,0.62
2023-04-08T03:39:52.815Z,0.64
2023-04-08T03:40:52.841Z,0.65
2023-04-08T03:41:52.866Z,0.65
2023-04-08T03:42:52.894Z,0.63
2023-04-08T03:43:52.953Z,0.64
2023-04-08T03:44:52.985Z,0.62
2023-04-08T03:45:53.006Z,0.62
2023-04-08T03:46:53.044Z,0.62
2023-04-08T03:47:53.167Z,0.63
2023-04-08T03:48:53.161Z,0.62
2023-04-08T03:49:53.191Z,0.63
2023-04-08T03:50:53.229Z,0.65
2023-04-08T03:51:53.244Z,0.63
2023-04-08T03:52:53.284Z,0.63
2023-04-08T03:53:53.321Z,0.66
2023-04-08T03:54:53.358Z,0.66
2023-04-08T03:55:53.430Z,0.64
2023-04-08T03:56:53.455Z,0.62
2023-04-08T03:57:53.496Z,0.63
2023-04-08T03:58:53.532Z,0.64
2023-04-08T03:59:53.582Z,0.63
2023-04-08T04:00:53.605Z,0.65
2023-04-08T04:01:53.718Z,0.64
2023-04-08T04:02:53.730Z,0.65
2023-04-08T04:03:53.944Z,0.64
2023-04-08T04:04:53.844Z,0.63
2023-04-08T04:05:53.825Z,0.63
2023-04-08T04:06:53.849Z,0.63
2023-04-08T04:07:53.906Z,0.62
2023-04-08T04:08:53.930Z,0.62
2023-04-08T04:09:53.960Z,0.61
2023-04-08T04:10:54.015Z,0.62
2023-04-08T04:11:54.128Z,0.62
2023-04-08T04:12:54.085Z,0.61
2023-04-08T04:13:54.128Z,0.61
2023-04-08T04:14:54.141Z,0.65
2023-04-08T04:15:54.373Z,0.63
2023-04-08T04:16:54.257Z,0.62
2023-04-08T04:17:54.354Z,0.61
2023-04-08T04:18:54.571Z,0.61
2023-04-08T04:19:54.355Z,0.62
2023-04-08T04:20:54.364Z,0.62
2023-04-08T04:21:54.429Z,0.61
2023-04-08T04:22:54.492Z,0.61
2023-04-08T04:23:54.543Z,0.61
2023-04-08T04:24:54.542Z,0.63
2023-04-08T04:25:54.610Z,0.62
2023-04-08T04:26:54.611Z,0.62
2023-04-08T04:27:54.662Z,0.63
2023-04-08T04:28:54.672Z,0.62
2023-04-08T04:29:54.734Z,0.62
2023-04-08T04:30:56.613Z,0.64
2023-04-08T04:31:54.800Z,0.64
2023-04-08T04:32:54.887Z,0.63
2023-04-08T04:33:54.915Z,0.64
2023-04-08T04:34:54.907Z,0.63
2023-04-08T04:35:54.978Z,0.62
2023-04-08T04:36:54.966Z,0.63
2023-04-08T04:37:55.025Z,0.64
2023-04-08T04:38:55.240Z,0.63
2023-04-08T04:39:55.082Z,0.65
2023-04-08T04:40:55.119Z,0.66
2023-04-08T04:41:55.135Z,0.64
2023-04-08T04:42:55.194Z,0.64
2023-04-08T04:43:55.227Z,0.64
2023-04-08T04:44:55.270Z,0.64
2023-04-08T04:45:55.296Z,0.63
2023-04-08T04:46:55.400Z,0.64
2023-04-08T04:47:55.370Z,0.62
2023-04-08T04:48:55.393Z,0.62
2023-04-08T04:49:55.430Z,0.61
2023-04-08T04:50:55.481Z,0.62
2023-04-08T04:51:55.494Z,0.62
2023-04-08T04:52:55.598Z,0.61
2023-04-08T04:53:55.605Z,0.61
2023-04-08T04:54:55.628Z,0.61
2023-04-08T04:55:55.667Z,0.62
2023-04-08T04:56:55.687Z,0.61
2023-04-08T04:57:55.737Z,0.62
2023-04-08T04:58:55.802Z,0.62
2023-04-08T04:59:55.817Z,0.63
2023-04-08T05:00:55.867Z,0.64
2023-04-08T05:01:56.025Z,0.63
2023-04-08T05:02:56.026Z,0.64
2023-04-08T05:03:55.978Z,0.64
2023-04-08T05:04:56.118Z,0.63
2023-04-08T05:05:56.048Z,0.62
2023-04-08T05:06:56.095Z,0.62
2023-04-08T05:07:56.162Z,0.63
2023-04-08T05:08:56.181Z,0.61
2023-04-08T05:09:56.238Z,0.60
2023-04-08T05:10:56.237Z,0.62
2023-04-08T05:11:56.274Z,0.62
2023-04-08T05:12:56.305Z,0.64
2023-04-08T05:13:56.350Z,0.62
2023-04-08T05:14:56.356Z,0.62
2023-04-08T05:15:56.476Z,0.61
2023-04-08T05:16:56.481Z,0.61
2023-04-08T05:17:56.564Z,0.63
2023-04-08T05:18:56.544Z,0.63
2023-04-08T05:19:56.567Z,0.66
2023-04-08T05:20:56.640Z,0.65
2023-04-08T05:21:56.658Z,0.63
2023-04-08T05:22:56.702Z,0.64
2023-04-08T05:23:56.717Z,0.65
2023-04-08T05:24:56.742Z,0.65
2023-04-08T05:25:56.767Z,0.63
2023-04-08T05:26:56.813Z,0.63
2023-04-08T05:27:56.859Z,0.63
2023-04-08T05:28:57.016Z,0.63
2023-04-08T05:29:56.960Z,0.63
2023-04-08T05:30:56.987Z,0.62
2023-04-08T05:31:57.021Z,0.64
2023-04-08T05:32:59.864Z,0.62
2023-04-08T05:33:57.033Z,0.63
2023-04-08T05:34:57.033Z,0.62
2023-04-08T05:35:57.052Z,0.64
2023-04-08T05:36:57.018Z,0.63
2023-04-08T05:37:57.002Z,0.62
2023-04-08T05:38:57.001Z,0.62
2023-04-08T05:39:57.002Z,0.62
2023-04-08T05:40:57.010Z,0.64
2023-04-08T05:41:56.972Z,0.63
2023-04-08T05:42:56.976Z,0.63
2023-04-08T05:43:56.974Z,0.63
2023-04-08T05:44:56.968Z,0.62
2023-04-08T05:45:56.928Z,0.61
2023-04-08T05:46:56.937Z,0.63
2023-04-08T05:47:56.998Z,0.64
2023-04-08T05:48:56.935Z,0.63
2023-04-08T05:49:56.954Z,0.64
2023-04-08T05:50:56.921Z,0.64
2023-04-08T05:51:56.925Z,0.63
2023-04-08T05:52:56.919Z,0.64
2023-04-08T05:53:56.990Z,0.62
2023-04-08T05:54:56.885Z,0.63
2023-04-08T05:55:56.873Z,0.63
2023-04-08T05:56:56.871Z,0.63
2023-04-08T05:57:56.865Z,0.64
2023-04-08T05:58:56.861Z,0.63
2023-04-08T05:59:56.867Z,0.63
2023-04-08T06:00:56.855Z,0.63
2023-04-08T06:01:57.024Z,0.62
2023-04-08T06:02:57.132Z,0.61
2023-04-08T06:03:57.074Z,0.62
2023-04-08T06:04:56.946Z,0.62
2023-04-08T06:05:56.794Z,0.64
2023-04-08T06:06:56.793Z,0.64
2023-04-08T06:07:56.829Z,0.63
2023-04-08T06:08:56.825Z,0.65
2023-04-08T06:09:56.759Z,0.64
2023-04-08T06:10:56.803Z,0.62
2023-04-08T06:11:56.771Z,0.62
2023-04-08T06:12:56.799Z,0.63
2023-04-08T06:13:56.763Z,0.63
2023-04-08T06:14:56.800Z,0.65
2023-04-08T06:15:56.854Z,0.63
2023-04-08T06:16:56.802Z,0.65
2023-04-08T06:17:56.782Z,0.65
2023-04-08T06:18:56.755Z,0.64
2023-04-08T06:19:56.784Z,0.64
2023-04-08T06:20:56.853Z,0.64
2023-04-08T06:21:56.880Z,0.66
2023-04-08T06:22:56.909Z,0.66
2023-04-08T06:23:56.959Z,0.66
2023-04-08T06:24:56.971Z,0.66
2023-04-08T06:25:57.023Z,0.66
2023-04-08T06:26:57.074Z,0.67
2023-04-08T06:27:57.134Z,0.68
2023-04-08T06:28:57.156Z,0.67
2023-04-08T06:29:57.273Z,0.66
2023-04-08T06:30:57.194Z,0.65
2023-04-08T06:31:57.284Z,0.65
2023-04-08T06:32:57.336Z,0.65
2023-04-08T06:33:57.348Z,0.66
2023-04-08T06:34:57.419Z,0.66
2023-04-08T06:35:57.539Z,0.68
2023-04-08T06:36:57.484Z,0.66
2023-04-08T06:37:57.549Z,0.66
2023-04-08T06:38:57.537Z,0.67
2023-04-08T06:39:57.603Z,0.68
2023-04-08T06:40:57.576Z,0.69
2023-04-08T06:41:57.650Z,0.69
2023-04-08T06:42:57.670Z,0.69
2023-04-08T06:43:57.845Z,0.69
2023-04-08T06:44:57.721Z,0.67
2023-04-08T06:45:57.891Z,0.67
2023-04-08T06:46:57.814Z,0.63
2023-04-08T06:47:57.890Z,0.63
2023-04-08T06:48:57.884Z,0.63
2023-04-08T06:49:57.959Z,0.62
2023-04-08T06:50:57.940Z,0.62
2023-04-08T06:51:58.002Z,0.63
2023-04-08T06:52:58.007Z,0.63
2023-04-08T06:53:58.061Z,0.63
2023-04-08T06:54:58.092Z,0.62
2023-04-08T06:55:58.143Z,0.62
2023-04-08T06:56:58.135Z,0.61
2023-04-08T06:57:58.189Z,0.60
2023-04-08T06:58:58.168Z,0.61
2023-04-08T06:59:58.217Z,0.61
2023-04-08T07:00:58.289Z,0.61
2023-04-08T07:01:58.328Z,0.63
2023-04-08T07:02:58.371Z,0.63
2023-04-08T07:03:58.332Z,0.65
2023-04-08T07:04:58.365Z,0.65
2023-04-08T07:05:58.389Z,0.65
2023-04-08T07:06:58.397Z,0.63
2023-04-08T07:07:58.447Z,0.65
2023-04-08T07:08:58.466Z,0.66
2023-04-08T07:09:58.485Z,0.66
2023-04-08T07:10:58.504Z,0.65
2023-04-08T07:11:58.617Z,0.70
2023-04-08T07:12:58.584Z,0.75
2023-04-08T07:13:58.612Z,0.73
2023-04-08T07:14:58.636Z,0.78
2023-04-08T07:15:58.630Z,0.77
2023-04-08T07:16:58.663Z,0.81
2023-04-08T07:17:58.860Z,0.78
2023-04-08T07:18:58.682Z,0.78
2023-04-08T07:19:59.760Z,0.82
2023-04-08T07:20:58.746Z,0.88
2023-04-08T07:21:58.790Z,0.84
2023-04-08T07:22:58.824Z,0.85
2023-04-08T07:23:58.821Z,0.81
2023-04-08T07:24:58.894Z,0.83
2023-04-08T07:25:58.876Z,0.87
2023-04-08T07:26:58.909Z,0.88
2023-04-08T07:27:58.934Z,0.88
2023-04-08T07:28:58.985Z,0.87
2023-04-08T07:29:59.024Z,0.83
2023-04-08T07:30:59.054Z,0.83
2023-04-08T07:31:59.060Z,0.84
2023-04-08T07:33:00.785Z,0.87
2023-04-08T07:33:59.083Z,0.85
2023-04-08T07:34:59.103Z,0.84
2023-04-08T07:35:59.140Z,0.87
2023-04-08T07:36:59.126Z,0.88
2023-04-08T07:37:59.162Z,0.85
2023-04-08T07:38:59.190Z,0.86
2023-04-08T07:39:59.180Z,0.90
2023-04-08T07:40:59.229Z,0.85
2023-04-08T07:41:59.277Z,0.85
2023-04-08T07:42:59.226Z,0.85
2023-04-08T07:43:59.264Z,0.86
2023-04-08T07:44:59.295Z,0.82
2023-04-08T07:45:59.408Z,0.87
2023-04-08T07:46:59.353Z,0.87
2023-04-08T07:47:59.424Z,0.86
2023-04-08T07:48:59.436Z,0.82
2023-04-08T07:49:59.429Z,0.85
2023-04-08T07:51:07.998Z,0.86
2023-04-08T07:52:00.441Z,0.86
2023-04-08T07:52:59.464Z,0.86
2023-04-08T07:53:59.418Z,0.86
2023-04-08T07:54:59.438Z,0.86
2023-04-08T07:55:59.431Z,0.84
2023-04-08T07:56:59.408Z,0.85
2023-04-08T07:57:59.428Z,0.82
2023-04-08T07:58:59.383Z,0.83
2023-04-08T07:59:59.382Z,0.85
2023-04-08T08:00:59.375Z,0.87
2023-04-08T08:01:59.425Z,0.84
2023-04-08T08:02:59.454Z,0.83
2023-04-08T08:03:59.696Z,0.86
2023-04-08T08:04:59.425Z,0.87
2023-04-08T08:05:59.376Z,0.89
2023-04-08T08:06:59.361Z,0.88
2023-04-08T08:07:59.356Z,0.86
2023-04-08T08:08:59.348Z,0.86
2023-04-08T08:09:59.336Z,0.85
2023-04-08T08:10:59.322Z,0.84
2023-04-08T08:11:59.339Z,0.87
2023-04-08T08:12:59.377Z,0.86
2023-04-08T08:13:59.388Z,0.83
2023-04-08T08:14:59.414Z,0.82
2023-04-08T08:15:59.524Z,0.83
2023-04-08T08:16:59.480Z,0.91
2023-04-08T08:17:59.537Z,0.88
2023-04-08T08:18:59.516Z,0.89
2023-04-08T08:19:59.533Z,0.89
2023-04-08T08:21:00.266Z,0.87
2023-04-08T08:21:59.565Z,0.87
2023-04-08T08:22:59.579Z,0.85
2023-04-08T08:23:59.669Z,0.87
2023-04-08T08:24:59.638Z,0.85
2023-04-08T08:25:59.705Z,0.80
2023-04-08T08:26:59.619Z,0.81
2023-04-08T08:27:59.675Z,0.89
2023-04-08T08:28:59.685Z,0.89
2023-04-08T08:29:59.725Z,0.88
2023-04-08T08:30:59.740Z,0.87
2023-04-08T08:31:59.722Z,0.88
2023-04-08T08:32:59.770Z,0.86
2023-04-08T08:33:59.764Z,0.89
2023-04-08T08:34:59.785Z,0.84
2023-04-08T08:35:59.803Z,0.88
2023-04-08T08:36:59.804Z,0.89
2023-04-08T08:37:59.817Z,0.83
2023-04-08T08:38:59.819Z,0.84
2023-04-08T08:39:59.844Z,0.90
2023-04-08T08:40:59.867Z,0.88
2023-04-08T08:41:59.894Z,0.84
2023-04-08T08:42:59.892Z,0.87
2023-04-08T08:43:59.904Z,0.86
2023-04-08T08:44:59.924Z,0.90
2023-04-08T08:45:59.949Z,0.91
2023-04-08T08:47:00.003Z,0.90
2023-04-08T08:47:59.987Z,0.89
2023-04-08T08:48:59.948Z,0.87
2023-04-08T08:49:59.973Z,0.88
2023-04-08T08:50:59.963Z,0.88
2023-04-08T08:52:00.000Z,0.92
2023-04-08T08:52:59.970Z,0.87
2023-04-08T08:53:59.999Z,0.88
2023-04-08T08:55:00.018Z,0.85
2023-04-08T08:57:01.015Z,0.86
2023-04-08T08:58:00.120Z,0.86
2023-04-08T08:59:00.005Z,0.87
2023-04-08T08:59:59.968Z,0.88
2023-04-08T09:00:59.987Z,0.90
2023-04-08T09:02:00.062Z,0.86
2023-04-08T09:03:00.321Z,0.88
2023-04-08T09:04:00.150Z,0.90
2023-04-08T09:05:00.077Z,0.88
2023-04-08T09:05:59.954Z,0.85
2023-04-08T09:06:59.930Z,0.86
2023-04-08T09:07:59.939Z,0.88
2023-04-08T09:08:59.908Z,0.85
2023-04-08T09:09:59.905Z,0.83
2023-04-08T09:10:59.923Z,0.83
2023-04-08T09:11:59.891Z,0.90
2023-04-08T09:12:59.891Z,0.88
2023-04-08T09:13:59.902Z,0.85
2023-04-08T09:14:59.854Z,0.84
2023-04-08T09:15:59.906Z,0.85
2023-04-08T09:16:59.857Z,0.89
2023-04-08T09:17:59.924Z,0.89
2023-04-08T09:18:59.862Z,0.86
2023-04-08T09:19:59.852Z,0.87
2023-04-08T09:20:59.821Z,0.89
2023-04-08T09:21:59.838Z,0.84
2023-04-08T09:22:59.834Z,0.85
2023-04-08T09:23:59.824Z,0.87
2023-04-08T09:24:59.809Z,0.86
2023-04-08T09:25:59.817Z,0.86
2023-04-08T09:26:59.802Z,0.86
2023-04-08T09:27:59.791Z,0.83
2023-04-08T09:29:02.468Z,0.85
2023-04-08T09:30:00.760Z,0.85
2023-04-08T09:30:59.782Z,0.86
2023-04-08T09:31:59.811Z,0.87
2023-04-08T09:32:59.744Z,0.88
2023-04-08T09:33:59.735Z,0.87
2023-04-08T09:34:59.731Z,0.90
2023-04-08T09:35:59.745Z,0.87
2023-04-08T09:36:59.738Z,0.88
2023-04-08T09:37:59.744Z,0.87
2023-04-08T09:38:59.693Z,0.84
2023-04-08T09:39:59.704Z,0.86
2023-04-08T09:40:59.702Z,0.85
2023-04-08T09:41:59.683Z,0.85
2023-04-08T09:42:59.710Z,0.89
2023-04-08T09:43:59.679Z,0.86
2023-04-08T09:44:59.678Z,0.85
2023-04-08T09:45:59.755Z,0.86
2023-04-08T09:46:59.640Z,0.84
2023-04-08T09:47:59.662Z,0.83
2023-04-08T09:48:59.626Z,0.82
2023-04-08T09:49:59.605Z,0.83
2023-04-08T09:50:59.614Z,0.87
2023-04-08T09:51:59.594Z,0.93
2023-04-08T09:52:59.625Z,0.89
2023-04-08T09:53:59.578Z,0.87
2023-04-08T09:54:59.606Z,0.85
2023-04-08T09:55:59.605Z,0.89
2023-04-08T09:56:59.578Z,0.92
2023-04-08T09:57:59.569Z,0.90
2023-04-08T09:58:59.567Z,0.93
2023-04-08T09:59:59.551Z,0.92
2023-04-08T10:00:59.652Z,0.92
2023-04-08T10:01:59.687Z,0.94
2023-04-08T10:02:59.768Z,0.92
2023-04-08T10:03:59.689Z,0.95
2023-04-08T10:04:59.775Z,0.92
2023-04-08T10:05:59.751Z,0.93
2023-04-08T10:06:59.870Z,0.92
2023-04-08T10:07:59.811Z,0.94
2023-04-08T10:08:59.835Z,0.95
2023-04-08T10:09:59.841Z,0.94
2023-04-08T10:10:59.907Z,0.93
2023-04-08T10:11:59.919Z,0.92
2023-04-08T10:12:59.923Z,0.95
2023-04-08T10:13:59.938Z,0.93
2023-04-08T10:14:59.921Z,0.91
2023-04-08T10:15:59.931Z,0.92
2023-04-08T10:17:00.017Z,0.92
2023-04-08T10:18:00.039Z,0.92
2023-04-08T10:19:00.020Z,0.93
2023-04-08T10:20:00.032Z,0.90
2023-04-08T10:21:00.015Z,0.91
2023-04-08T10:22:00.053Z,0.89
2023-04-08T10:23:00.309Z,0.89
2023-04-08T10:24:00.034Z,0.91
2023-04-08T10:25:00.063Z,0.91
2023-04-08T10:26:00.047Z,0.92
2023-04-08T10:27:00.053Z,0.94
2023-04-08T10:28:00.084Z,0.93
2023-04-08T10:29:00.095Z,0.94
2023-04-08T10:30:00.048Z,0.90
2023-04-08T10:31:00.091Z,0.88
2023-04-08T10:32:00.116Z,0.92
2023-04-08T10:33:00.176Z,0.90
2023-04-08T10:34:00.045Z,0.89
2023-04-08T10:35:00.037Z,0.89
2023-04-08T10:36:00.071Z,0.89
2023-04-08T10:37:00.047Z,0.90
2023-04-08T10:38:00.050Z,0.92
2023-04-08T10:39:00.032Z,0.92
2023-04-08T10:40:00.032Z,0.91
2023-04-08T10:41:00.049Z,0.90
2023-04-08T10:42:00.183Z,0.89
2023-04-08T10:43:00.098Z,0.88
2023-04-08T10:44:00.085Z,0.87
2023-04-08T10:45:00.056Z,0.89
2023-04-08T10:46:00.103Z,0.88
2023-04-08T10:47:00.145Z,0.88
2023-04-08T10:48:00.126Z,0.93
2023-04-08T10:49:00.145Z,0.94
2023-04-08T10:50:00.131Z,0.91
2023-04-08T10:51:00.131Z,0.90
2023-04-08T10:52:00.111Z,0.91
2023-04-08T10:53:00.109Z,0.93
2023-04-08T10:54:00.107Z,0.90
2023-04-08T10:55:00.106Z,0.89
2023-04-08T10:56:00.167Z,0.90
2023-04-08T10:57:00.089Z,0.87
2023-04-08T10:58:00.136Z,0.90
2023-04-08T10:59:00.117Z,0.90
2023-04-08T11:00:00.128Z,0.92
2023-04-08T11:01:00.126Z,0.92
2023-04-08T11:02:00.317Z,0.90
2023-04-08T11:03:00.309Z,0.89
2023-04-08T11:04:00.234Z,0.93
2023-04-08T11:05:00.148Z,0.93
2023-04-08T11:06:00.130Z,0.95
2023-04-08T11:07:00.168Z,0.98
2023-04-08T11:08:00.135Z,0.91
2023-04-08T11:09:00.159Z,0.87
2023-04-08T11:10:00.169Z,0.86
2023-04-08T11:11:00.143Z,0.85
2023-04-08T11:12:00.132Z,0.86
2023-04-08T11:13:00.128Z,0.84
2023-04-08T11:14:00.125Z,0.86
2023-04-08T11:15:00.125Z,0.86
2023-04-08T11:16:00.295Z,0.83
2023-04-08T11:17:00.136Z,0.81
2023-04-08T11:18:00.259Z,0.88
2023-04-08T11:19:00.138Z,0.92
2023-04-08T11:20:00.160Z,0.92
2023-04-08T11:21:00.409Z,0.96
2023-04-08T11:22:00.146Z,0.91
2023-04-08T11:23:00.142Z,0.87
2023-04-08T11:24:00.813Z,0.90
2023-04-08T11:25:00.128Z,0.92
2023-04-08T11:26:00.152Z,0.96
2023-04-08T11:27:00.116Z,0.94
2023-04-08T11:28:00.126Z,0.91
2023-04-08T11:29:00.109Z,0.93
2023-04-08T11:30:00.160Z,0.91
2023-04-08T11:31:00.223Z,0.90
2023-04-08T11:32:00.128Z,0.90
2023-04-08T11:33:00.180Z,0.94
2023-04-08T11:34:00.122Z,0.93
2023-04-08T11:35:00.129Z,0.92
2023-04-08T11:36:00.155Z,0.90
2023-04-08T11:37:00.113Z,0.89
2023-04-08T11:38:00.153Z,0.93
2023-04-08T11:39:00.195Z,0.92
2023-04-08T11:40:00.208Z,0.91
2023-04-08T11:41:00.261Z,0.90
2023-04-08T11:42:00.237Z,0.91
2023-04-08T11:43:00.225Z,0.91
2023-04-08T11:44:00.278Z,0.94
2023-04-08T11:45:00.278Z,0.92
2023-04-08T11:46:00.309Z,0.93
2023-04-08T11:47:00.313Z,0.91
2023-04-08T11:48:01.157Z,0.90
2023-04-08T11:49:00.415Z,0.92
2023-04-08T11:50:00.478Z,0.97
2023-04-08T11:51:00.478Z,0.98
2023-04-08T11:52:00.520Z,0.96
2023-04-08T11:53:00.559Z,0.94
2023-04-08T11:54:00.675Z,0.95
2023-04-08T11:55:00.602Z,0.94
2023-04-08T11:56:00.636Z,0.93
2023-04-08T11:57:00.690Z,0.94
2023-04-08T11:58:00.764Z,0.92
2023-04-08T11:59:00.781Z,0.96
2023-04-08T12:00:00.861Z,0.96
2023-04-08T12:01:00.890Z,0.97
2023-04-08T12:02:00.969Z,0.96
2023-04-08T12:03:01.058Z,0.94
2023-04-08T12:04:01.205Z,0.95
2023-04-08T12:05:01.180Z,0.96
2023-04-08T12:06:01.162Z,0.92
2023-04-08T12:07:01.206Z,0.95
2023-04-08T12:08:01.280Z,0.94
2023-04-08T12:09:01.286Z,0.94
2023-04-08T12:10:01.374Z,0.94
2023-04-08T12:11:12.981Z,0.94
2023-04-08T12:12:02.376Z,0.94
2023-04-08T12:13:01.355Z,0.95
2023-04-08T12:14:01.355Z,0.95
2023-04-08T12:15:01.360Z,0.95
2023-04-08T12:16:01.495Z,0.95
2023-04-08T12:17:01.340Z,0.96
2023-04-08T12:18:01.361Z,0.96
2023-04-08T12:19:01.346Z,0.95
2023-04-08T12:20:01.368Z,0.99
2023-04-08T12:21:01.328Z,0.98
2023-04-08T12:22:01.344Z,0.97
2023-04-08T12:23:01.413Z,0.99
2023-04-08T12:24:01.414Z,0.97
2023-04-08T12:25:01.417Z,0.97
2023-04-08T12:26:01.471Z,0.94
2023-04-08T12:27:01.509Z,0.99
2023-04-08T12:28:01.518Z,0.95
2023-04-08T12:29:01.549Z,0.98
2023-04-08T12:30:01.564Z,0.94
2023-04-08T12:31:01.597Z,0.93
2023-04-08T12:32:01.652Z,0.93
2023-04-08T12:33:01.666Z,0.94
2023-04-08T12:34:01.658Z,0.94
2023-04-08T12:35:01.695Z,0.93
2023-04-08T12:36:01.710Z,0.94
2023-04-08T12:37:01.744Z,0.95
2023-04-08T12:38:01.775Z,0.97
2023-04-08T12:39:01.791Z,1.00
2023-04-08T12:40:01.837Z,0.98
2023-04-08T12:41:01.915Z,0.97
2023-04-08T12:42:01.936Z,1.00
2023-04-08T12:43:01.998Z,1.00
2023-04-08T12:44:02.033Z,1.02
2023-04-08T12:45:02.140Z,0.98
2023-04-08T12:46:02.114Z,0.98
2023-04-08T12:47:02.352Z,0.97
2023-04-08T12:48:02.292Z,1.03
2023-04-08T12:49:04.809Z,1.02
2023-04-08T12:50:02.328Z,1.04
2023-04-08T12:51:02.265Z,1.01
2023-04-08T12:52:02.271Z,0.99
2023-04-08T12:53:02.259Z,1.00
2023-04-08T12:54:02.250Z,0.99
2023-04-08T12:55:02.249Z,1.00
2023-04-08T12:56:02.252Z,1.02
2023-04-08T12:57:02.239Z,1.02
2023-04-08T12:58:02.215Z,1.01
2023-04-08T12:59:02.224Z,1.02
2023-04-08T13:00:02.297Z,0.99
2023-04-08T13:01:02.270Z,0.99
2023-04-08T13:02:02.261Z,1.01
2023-04-08T13:03:02.279Z,1.03
2023-04-08T13:04:02.436Z,1.01
2023-04-08T13:05:02.180Z,1.00
2023-04-08T13:06:02.179Z,1.01
2023-04-08T13:07:02.225Z,0.97
2023-04-08T13:08:02.164Z,0.98
2023-04-08T13:09:02.158Z,1.01
2023-04-08T13:10:02.142Z,1.04
2023-04-08T13:11:02.161Z,1.03
2023-04-08T13:12:02.135Z,1.06
2023-04-08T13:13:02.179Z,1.04
2023-04-08T13:14:02.125Z,1.05
2023-04-08T13:15:02.100Z,1.03
2023-04-08T13:16:02.160Z,1.00
2023-04-08T13:17:02.075Z,1.04
2023-04-08T13:18:02.134Z,1.02
2023-04-08T13:19:02.086Z,1.01
2023-04-08T13:20:02.082Z,1.02